Time;durP1;ratioP1;P1;durP2;ratioP2;P2;SDS_P1;SDS_P2;PMS_P1;PMS_P2;Temp;Humidity;BMP_temperature;BMP_pressure;BME280_temperature;BME280_humidity;BME280_pressure;Samples;Min_cycle;Max_cycle;Signal;HPM_P1;HPM_P2
2024/03/06 00:00:15;;;;;;;9.97;7.83;;;;;;;8.21;71.09;96143.09;4992172;28;20181;-72
2024/03/06 00:02:40;;;;;;;8.50;7.60;;;;;;;8.20;71.28;96144.00;4990790;28;20207;-72
2024/03/06 00:05:07;;;;;;;9.37;7.57;;;;;;;8.10;71.19;96160.94;4991100;28;20886;-71
2024/03/06 00:07:33;;;;;;;8.40;6.90;;;;;;;8.23;71.31;96159.56;4990241;28;20283;-72
2024/03/06 00:09:58;;;;;;;9.67;7.80;;;;;;;8.23;71.36;96156.13;4990970;28;20507;-71
2024/03/06 00:12:24;;;;;;;9.60;7.40;;;;;;;8.18;71.47;96164.13;4990708;28;20718;-72
2024/03/06 00:14:49;;;;;;;17.03;8.33;;;;;;;8.26;70.71;96159.44;4990929;28;20185;-72
2024/03/06 00:17:15;;;;;;;10.03;7.77;;;;;;;8.23;71.51;96156.13;4990754;28;20177;-70
2024/03/06 00:19:40;;;;;;;10.30;8.30;;;;;;;8.24;71.67;96158.69;4990797;28;20173;-71
2024/03/06 00:22:06;;;;;;;10.70;7.83;;;;;;;8.20;71.28;96162.31;4990329;28;20415;-72
2024/03/06 00:24:32;;;;;;;10.00;7.90;;;;;;;8.19;71.64;96160.59;4989466;28;20201;-72
2024/03/06 00:26:57;;;;;;;8.37;7.53;;;;;;;8.27;71.36;96165.53;4989577;28;20654;-72
2024/03/06 00:29:23;;;;;;;10.60;7.80;;;;;;;8.25;72.02;96170.81;4989812;28;20416;-71
2024/03/06 00:31:48;;;;;;;9.80;8.80;;;;;;;8.20;71.67;96169.31;4989277;28;20193;-71
2024/03/06 00:34:15;;;;;;;9.20;7.40;;;;;;;8.20;71.59;96167.53;4989323;28;20208;-73
2024/03/06 00:36:41;;;;;;;8.77;7.50;;;;;;;8.15;72.15;96174.72;4988998;28;20201;-73
2024/03/06 00:39:07;;;;;;;8.90;6.90;;;;;;;8.06;72.20;96170.66;4989013;28;20404;-72
2024/03/06 00:41:34;;;;;;;10.40;9.27;;;;;;;8.03;73.48;96178.63;4988257;28;20637;-71
2024/03/06 00:43:59;;;;;;;8.53;7.63;;;;;;;8.01;73.37;96172.59;4988379;28;20431;-72
2024/03/06 00:46:25;;;;;;;7.93;7.23;;;;;;;8.05;73.09;96163.75;4988878;28;20413;-72
2024/03/06 00:48:50;;;;;;;10.53;7.97;;;;;;;8.13;72.87;96157.38;4989716;28;20165;-73
2024/03/06 00:51:16;;;;;;;9.60;8.23;;;;;;;8.09;72.78;96158.41;4989755;28;20552;-73
2024/03/06 00:53:41;;;;;;;9.23;7.83;;;;;;;8.07;73.08;96161.06;4990280;28;20197;-72
2024/03/06 00:56:07;;;;;;;10.27;7.80;;;;;;;7.92;72.99;96162.50;4989766;28;20173;-73
2024/03/06 00:58:33;;;;;;;10.60;7.93;;;;;;;8.06;73.00;96160.22;4990057;28;20200;-73
2024/03/06 01:00:58;;;;;;;9.90;8.40;;;;;;;7.99;72.72;96161.38;4990031;28;20903;-72
2024/03/06 01:03:24;;;;;;;13.17;9.20;;;;;;;8.06;72.41;96159.38;4990444;28;20177;-72
2024/03/06 01:05:52;;;;;;;12.33;9.40;;;;;;;8.07;73.06;96158.44;4990188;28;20655;-72
2024/03/06 01:08:17;;;;;;;16.10;9.27;;;;;;;8.10;72.19;96160.94;4991089;28;20420;-72
2024/03/06 01:10:43;;;;;;;16.33;9.63;;;;;;;8.05;72.02;96160.25;4990013;28;20495;-73
2024/03/06 01:13:10;;;;;;;12.80;9.20;;;;;;;8.03;72.82;96164.69;4989060;28;20208;-72
2024/03/06 01:15:36;;;;;;;9.90;8.90;;;;;;;8.03;72.36;96164.69;4990029;28;20419;-72
2024/03/06 01:18:03;;;;;;;12.23;9.90;;;;;;;8.07;72.27;96151.47;4988598;28;20503;-71
2024/03/06 01:20:29;;;;;;;12.83;11.00;;;;;;;8.15;72.33;96158.16;4993108;28;20413;-72
2024/03/06 01:22:54;;;;;;;12.63;9.30;;;;;;;8.02;73.25;96153.41;4998671;28;20436;-72
2024/03/06 01:25:20;;;;;;;11.37;9.57;;;;;;;8.10;72.32;96163.56;5004581;28;20161;-72
2024/03/06 01:27:47;;;;;;;13.30;9.73;;;;;;;8.06;72.98;96160.22;5001716;28;20187;-72
2024/03/06 01:30:13;;;;;;;11.83;10.47;;;;;;;8.08;72.43;96162.78;5002017;28;20177;-71
2024/03/06 01:32:38;;;;;;;12.10;10.50;;;;;;;8.04;72.66;96163.81;4999500;28;20459;-71
2024/03/06 01:35:05;;;;;;;13.37;10.20;;;;;;;8.03;72.26;96160.34;5003433;28;20207;-72
2024/03/06 01:37:30;;;;;;;12.47;10.13;;;;;;;8.08;72.28;96162.78;5001621;28;20263;-71
2024/03/06 01:39:56;;;;;;;14.00;11.23;;;;;;;8.00;73.00;96156.97;4991045;28;20496;-73
2024/03/06 01:42:21;;;;;;;16.53;11.90;;;;;;;8.10;72.95;96163.56;4989560;28;20176;-71
2024/03/06 01:44:46;;;;;;;12.53;10.23;;;;;;;8.00;73.70;96163.06;4989667;28;20196;-72
2024/03/06 01:47:12;;;;;;;14.60;9.60;;;;;;;7.97;73.26;96162.31;4989266;28;20176;-71
2024/03/06 01:49:37;;;;;;;14.80;10.93;;;;;;;7.92;73.43;96164.28;4971823;28;20280;-72
2024/03/06 01:52:03;;;;;;;12.03;10.80;;;;;;;8.00;72.71;96159.59;4988694;28;20204;-72
2024/03/06 01:54:31;;;;;;;12.77;10.33;;;;;;;8.01;73.08;96161.31;4989049;28;20197;-72
2024/03/06 01:57:00;;;;;;;12.57;10.63;;;;;;;8.00;73.15;96162.19;4989127;28;20184;-72
2024/03/06 01:59:26;;;;;;;15.63;11.57;;;;;;;7.91;72.07;96160.78;4988944;28;20447;-72
2024/03/06 02:01:54;;;;;;;13.23;10.20;;;;;;;7.96;72.87;96161.47;4988007;28;20408;-72
2024/03/06 02:04:20;;;;;;;14.50;11.47;;;;;;;7.99;72.83;96168.34;4988733;28;20512;-74
2024/03/06 02:06:46;;;;;;;18.20;11.83;;;;;;;7.93;72.86;96165.97;4987731;28;20416;-73
2024/03/06 02:09:14;;;;;;;13.67;11.57;;;;;;;7.96;73.11;96169.31;4988066;28;20180;-71
2024/03/06 02:11:40;;;;;;;12.10;10.87;;;;;;;7.96;72.93;96166.72;4987460;28;20487;-72
2024/03/06 02:14:09;;;;;;;12.90;11.30;;;;;;;7.96;73.16;96168.44;4987970;28;20428;-72
2024/03/06 02:16:35;;;;;;;12.03;10.43;;;;;;;7.92;72.96;96161.66;4988438;28;20769;-73
2024/03/06 02:19:00;;;;;;;13.53;11.43;;;;;;;7.83;73.48;96157.63;4990853;28;20412;-72
2024/03/06 02:21:26;;;;;;;12.43;11.03;;;;;;;7.91;72.92;96159.94;4990614;28;20867;-73
2024/03/06 02:23:52;;;;;;;14.00;11.47;;;;;;;7.77;73.25;96150.88;4987671;28;21082;-72
2024/03/06 02:26:18;;;;;;;11.13;9.50;;;;;;;7.86;73.87;96147.03;4987807;28;20177;-70
2024/03/06 02:28:51;;;;;;;12.53;10.97;;;;;;;7.85;73.80;96154.03;4989667;28;20440;-71
2024/03/06 02:31:18;;;;;;;15.80;10.50;;;;;;;7.95;73.36;96151.06;4987241;28;20434;-71
2024/03/06 02:33:44;;;;;;;11.90;10.70;;;;;;;8.01;73.13;96148.25;4987159;28;20436;-71
2024/03/06 02:36:10;;;;;;;12.70;10.93;;;;;;;7.97;73.39;96149.25;4987976;28;20484;-71
2024/03/06 02:38:36;;;;;;;11.93;9.40;;;;;;;7.90;72.67;96151.25;4987567;28;20444;-71
2024/03/06 02:41:02;;;;;;;10.53;9.43;;;;;;;7.90;72.88;96147.78;4987627;28;20519;-71
2024/03/06 02:43:27;;;;;;;11.47;9.57;;;;;;;7.88;73.29;96149.59;4987368;28;20263;-72
2024/03/06 02:45:53;;;;;;;10.37;9.30;;;;;;;7.80;73.01;96142.91;4988381;28;20177;-72
2024/03/06 02:48:18;;;;;;;13.13;10.10;;;;;;;7.84;72.56;96151.47;4988240;28;20593;-72
2024/03/06 02:50:44;;;;;;;11.80;9.40;;;;;;;7.81;72.64;96149.81;4987956;28;20165;-73
2024/03/06 02:53:09;;;;;;;10.80;9.70;;;;;;;7.92;72.22;96161.66;4987419;28;20200;-71
2024/03/06 02:55:34;;;;;;;9.60;8.60;;;;;;;7.82;73.19;96148.09;4986010;28;20640;-71
2024/03/06 02:58:03;;;;;;;12.20;9.67;;;;;;;7.74;74.59;96155.34;4985944;28;20161;-71
2024/03/06 03:00:29;;;;;;;12.30;10.10;;;;;;;7.75;73.51;96155.28;4986205;28;20169;-71
2024/03/06 03:02:54;;;;;;;11.33;9.93;;;;;;;7.93;73.22;96160.72;4985910;28;20413;-70
2024/03/06 03:05:20;;;;;;;11.47;10.27;;;;;;;7.82;73.67;96156.75;4985799;28;20231;-70
2024/03/06 03:07:45;;;;;;;12.20;10.33;;;;;;;7.93;72.62;96156.34;4985854;28;20257;-70
2024/03/06 03:10:10;;;;;;;11.87;10.70;;;;;;;7.85;73.74;96161.03;4985803;28;20256;-71
2024/03/06 03:12:38;;;;;;;12.83;10.10;;;;;;;7.73;74.14;96164.94;4985835;28;20207;-72
2024/03/06 03:15:04;;;;;;;13.33;10.73;;;;;;;7.75;73.56;96157.91;4986280;28;20716;-72
2024/03/06 03:17:30;;;;;;;13.63;10.20;;;;;;;7.87;73.81;96154.00;4985982;28;20451;-71
2024/03/06 03:19:55;;;;;;;12.90;10.13;;;;;;;7.79;73.84;96158.63;4986039;28;20440;-71
2024/03/06 03:22:21;;;;;;;11.50;9.90;;;;;;;7.84;74.10;96161.91;4985746;28;20641;-71
2024/03/06 03:24:47;;;;;;;14.47;10.57;;;;;;;7.77;74.19;96158.69;4986125;28;20199;-71
2024/03/06 03:27:13;;;;;;;10.90;9.40;;;;;;;7.68;74.20;96163.38;4985624;28;20185;-71
2024/03/06 03:29:38;;;;;;;10.20;8.63;;;;;;;7.74;74.35;96163.16;4985876;28;20825;-72
2024/03/06 03:32:04;;;;;;;14.17;9.00;;;;;;;7.79;73.67;96164.69;4985333;28;20263;-71
2024/03/06 03:34:30;;;;;;;11.60;9.67;;;;;;;7.85;73.92;96163.63;4985493;28;20267;-72
2024/03/06 03:36:56;;;;;;;11.80;9.53;;;;;;;7.73;74.17;96167.56;4985401;28;20220;-71
2024/03/06 03:39:24;;;;;;;10.20;8.70;;;;;;;7.82;74.03;96167.22;4985768;28;20267;-71
2024/03/06 03:41:50;;;;;;;11.40;9.40;;;;;;;7.85;74.27;96164.47;4986708;28;20462;-71
2024/03/06 03:44:18;;;;;;;10.50;9.40;;;;;;;7.74;74.10;96166.63;4988770;28;20947;-71
2024/03/06 03:46:45;;;;;;;9.93;8.50;;;;;;;7.73;73.62;96167.56;4988868;28;20191;-71
2024/03/06 03:49:11;;;;;;;15.93;10.90;;;;;;;7.65;74.58;96172.19;4989140;28;20416;-71
2024/03/06 03:51:37;;;;;;;11.37;8.23;;;;;;;7.81;74.00;96169.88;4988761;28;20907;-71
2024/03/06 03:54:03;;;;;;;12.50;8.80;;;;;;;7.72;73.43;96180.66;4988792;28;20200;-71
2024/03/06 03:56:28;;;;;;;9.17;8.23;;;;;;;7.73;73.97;96182.38;4988970;28;20764;-71
2024/03/06 03:58:55;;;;;;;11.03;9.60;;;;;;;7.66;74.32;96181.75;4989131;28;20684;-71
2024/03/06 04:01:21;;;;;;;12.07;9.03;;;;;;;7.60;73.45;96179.34;4988847;28;20177;-70
2024/03/06 04:03:46;;;;;;;9.63;8.63;;;;;;;7.66;74.28;96184.34;4988841;28;20935;-71
2024/03/06 04:06:11;;;;;;;12.80;8.77;;;;;;;7.73;73.58;96178.00;4988494;28;20291;-69
2024/03/06 04:08:41;;;;;;;12.67;8.50;;;;;;;7.63;74.21;96172.25;4988792;28;20259;-70
2024/03/06 04:11:07;;;;;;;30.37;10.60;;;;;;;7.63;73.79;96180.09;4989265;28;20237;-71
2024/03/06 04:13:36;;;;;;;9.53;8.60;;;;;;;7.63;73.65;96187.94;4990002;28;20596;-72
2024/03/06 04:16:02;;;;;;;10.40;9.40;;;;;;;7.53;74.67;96186.53;4988906;28;20474;-72
2024/03/06 04:18:28;;;;;;;9.57;8.67;;;;;;;7.47;74.72;96188.53;4989066;28;20446;-71
2024/03/06 04:20:54;;;;;;;9.00;8.10;;;;;;;7.60;74.08;96195.84;4989067;28;20923;-70
2024/03/06 04:23:19;;;;;;;8.60;7.70;;;;;;;7.34;74.03;96194.16;4990780;28;20420;-70
2024/03/06 04:25:45;;;;;;;8.13;7.33;;;;;;;7.43;74.46;96193.00;4991734;28;20690;-70
2024/03/06 04:28:10;;;;;;;10.60;9.03;;;;;;;7.54;73.91;96187.41;4998427;28;20177;-71
2024/03/06 04:30:35;;;;;;;11.03;8.53;;;;;;;7.54;73.45;96193.47;4988220;28;20180;-71
2024/03/06 04:33:01;;;;;;;12.90;8.33;;;;;;;7.43;72.46;96199.06;4987747;28;20213;-71
2024/03/06 04:35:26;;;;;;;11.33;10.23;;;;;;;7.56;72.55;96198.63;4988135;28;20295;-71
2024/03/06 04:37:52;;;;;;;10.17;7.77;;;;;;;7.49;73.19;96194.53;4988019;28;20649;-70
2024/03/06 04:40:20;;;;;;;9.57;7.57;;;;;;;7.48;73.16;96205.88;4987892;28;20180;-70
2024/03/06 04:42:48;;;;;;;12.00;8.57;;;;;;;7.47;73.14;96202.44;4987677;28;20252;-72
2024/03/06 04:45:17;;;;;;;10.77;9.30;;;;;;;7.43;72.16;96206.88;4988096;28;20475;-71
2024/03/06 04:47:43;;;;;;;10.00;7.63;;;;;;;7.20;73.50;96206.81;4988077;28;20952;-71
2024/03/06 04:50:15;;;;;;;9.10;8.17;;;;;;;7.32;73.43;96216.88;4987785;28;20602;-71
2024/03/06 04:52:41;;;;;;;8.80;7.90;;;;;;;7.33;73.20;96213.34;4986585;28;20566;-71
2024/03/06 04:55:09;;;;;;;8.80;7.67;;;;;;;7.42;72.38;96215.63;4987896;28;20452;-71
2024/03/06 04:57:36;;;;;;;9.00;7.60;;;;;;;7.30;73.57;96217.78;4987602;28;20531;-70
2024/03/06 05:00:05;;;;;;;12.50;7.47;;;;;;;7.51;73.25;96214.47;4987851;28;20416;-72
2024/03/06 05:02:36;;;;;;;9.03;8.03;;;;;;;7.50;73.25;96212.75;4987539;28;20418;-71
2024/03/06 05:05:02;;;;;;;11.87;8.37;;;;;;;7.51;72.29;96217.09;4987355;28;20447;-71
2024/03/06 05:07:29;;;;;;;7.63;6.87;;;;;;;7.49;72.60;96218.03;4987486;28;20463;-71
2024/03/06 05:09:55;;;;;;;12.60;7.40;;;;;;;7.21;73.88;96219.81;4982328;28;20416;-71
2024/03/06 05:12:20;;;;;;;10.83;6.60;;;;;;;7.31;73.47;96228.19;4980574;28;20473;-71
2024/03/06 05:14:46;;;;;;;8.80;6.90;;;;;;;7.25;73.46;96224.94;4975972;28;20223;-71
2024/03/06 05:17:11;;;;;;;9.20;7.17;;;;;;;7.26;73.57;96224.91;4986997;28;20227;-71
2024/03/06 05:19:37;;;;;;;7.70;6.07;;;;;;;7.24;74.06;96231.06;4988054;28;20193;-71
2024/03/06 05:22:03;;;;;;;8.37;6.57;;;;;;;7.00;74.04;96228.38;4989265;28;20174;-72
2024/03/06 05:24:29;;;;;;;7.60;6.23;;;;;;;7.15;73.09;96227.00;4987264;28;20199;-71
2024/03/06 05:26:54;;;;;;;6.70;5.43;;;;;;;7.26;73.81;96230.13;4987353;28;20494;-71
2024/03/06 05:29:20;;;;;;;7.53;6.03;;;;;;;7.14;73.31;96235.75;4985356;28;20531;-70
2024/03/06 05:31:45;;;;;;;6.57;5.90;;;;;;;7.22;73.46;96233.72;4983263;28;20692;-70
2024/03/06 05:34:10;;;;;;;5.77;5.20;;;;;;;7.16;72.90;96233.94;4986751;28;20212;-72
2024/03/06 05:36:36;;;;;;;5.97;5.37;;;;;;;7.21;72.79;96240.72;4982392;28;20196;-71
2024/03/06 05:39:02;;;;;;;14.03;6.17;;;;;;;7.17;73.67;96238.25;4986930;28;20639;-70
2024/03/06 05:41:27;;;;;;;8.27;5.73;;;;;;;7.25;72.99;96232.75;4985998;28;20173;-71
2024/03/06 05:43:53;;;;;;;7.53;6.07;;;;;;;7.29;73.52;96236.97;4978842;28;21243;-70
2024/03/06 05:46:19;;;;;;;6.33;5.73;;;;;;;7.36;73.20;96243.72;4985950;28;20180;-71
2024/03/06 05:48:44;;;;;;;7.70;6.40;;;;;;;7.26;73.81;96245.78;4986541;28;20173;-71
2024/03/06 05:51:10;;;;;;;6.43;5.27;;;;;;;7.33;73.72;96244.66;4986181;28;20487;-71
2024/03/06 05:53:37;;;;;;;10.93;7.20;;;;;;;7.16;73.47;96252.22;4989495;28;20203;-71
2024/03/06 05:56:05;;;;;;;8.30;6.80;;;;;;;7.26;73.81;96256.22;4998303;28;20581;-72
2024/03/06 05:58:31;;;;;;;17.13;9.90;;;;;;;7.39;72.52;96249.69;5002218;28;20415;-71
2024/03/06 06:00:56;;;;;;;12.20;7.00;;;;;;;7.34;73.47;96248.13;4983995;28;20442;-70
2024/03/06 06:03:22;;;;;;;9.23;7.30;;;;;;;7.40;73.24;96248.78;4984338;28;20868;-71
2024/03/06 06:05:47;;;;;;;7.30;6.50;;;;;;;7.39;72.77;96256.66;4975989;28;20184;-70
2024/03/06 06:08:12;;;;;;;18.27;5.90;;;;;;;7.30;73.21;96263.06;4981372;28;20189;-69
2024/03/06 06:10:38;;;;;;;6.50;5.07;;;;;;;7.06;74.07;96261.22;4984283;28;20188;-68
2024/03/06 06:13:04;;;;;;;5.70;5.10;;;;;;;7.15;73.38;96263.53;4983146;28;20221;-69
2024/03/06 06:15:30;;;;;;;7.50;5.63;;;;;;;7.36;72.12;96261.97;4979458;28;20295;-69
2024/03/06 06:17:55;;;;;;;13.40;5.37;;;;;;;7.09;73.17;96263.75;4985147;28;20943;-69
2024/03/06 06:20:21;;;;;;;6.90;5.03;;;;;;;7.21;72.95;96263.34;4970299;28;20269;-69
2024/03/06 06:22:46;;;;;;;8.20;6.27;;;;;;;7.23;73.43;96266.75;4985838;28;20173;-69
2024/03/06 06:25:12;;;;;;;5.60;5.10;;;;;;;7.19;73.55;96272.97;4965576;28;20635;-69
2024/03/06 06:27:38;;;;;;;6.57;5.40;;;;;;;7.34;73.18;96277.69;4985933;28;20176;-68
2024/03/06 06:30:04;;;;;;;16.27;5.53;;;;;;;7.34;72.82;96275.06;4985977;28;20176;-68
2024/03/06 06:32:29;;;;;;;6.27;4.93;;;;;;;7.40;71.67;96274.03;4985241;28;20307;-67
2024/03/06 06:34:56;;;;;;;8.70;5.50;;;;;;;7.07;73.73;96271.63;4984895;28;20436;-69
2024/03/06 06:37:21;;;;;;;5.87;5.30;;;;;;;6.85;74.10;96281.88;4983984;28;20195;-69
2024/03/06 06:39:48;;;;;;;10.67;5.43;;;;;;;7.20;73.50;96277.28;4986355;28;20408;-69
2024/03/06 06:42:13;;;;;;;6.33;5.30;;;;;;;7.19;73.61;96280.81;4986574;28;20262;-69
2024/03/06 06:44:39;;;;;;;6.43;5.23;;;;;;;7.21;73.15;96279.84;4985634;28;21100;-68
2024/03/06 06:47:04;;;;;;;6.80;4.83;;;;;;;7.43;73.60;96264.31;4986717;28;20196;-69
2024/03/06 06:49:29;;;;;;;6.03;5.43;;;;;;;7.42;72.58;96273.06;4985699;28;20271;-69
2024/03/06 06:51:55;;;;;;;6.40;4.90;;;;;;;7.45;73.04;96271.28;4981620;28;20208;-68
2024/03/06 06:54:21;;;;;;;8.40;5.50;;;;;;;7.41;72.66;96266.13;4985010;28;20200;-68
2024/03/06 06:56:46;;;;;;;12.70;6.20;;;;;;;7.35;72.83;96271.56;4984369;28;20658;-68
2024/03/06 06:59:13;;;;;;;8.90;5.07;;;;;;;7.30;73.74;96267.38;4982350;28;20447;-69
2024/03/06 07:01:40;;;;;;;12.87;7.63;;;;;;;7.29;73.06;96268.31;4982821;28;20197;-68
2024/03/06 07:04:06;;;;;;;8.83;5.60;;;;;;;7.36;73.45;96269.81;4984677;28;20440;-69
2024/03/06 07:06:31;;;;;;;9.60;6.80;;;;;;;7.29;74.15;96270.91;4984780;28;20419;-68
2024/03/06 07:08:57;;;;;;;8.80;5.20;;;;;;;7.28;73.06;96274.44;4985620;28;20188;-69
2024/03/06 07:11:23;;;;;;;10.63;5.17;;;;;;;7.33;73.60;96269.91;4984934;28;20840;-69
2024/03/06 07:13:48;;;;;;;7.63;5.17;;;;;;;7.32;73.67;96270.81;4967381;28;20205;-69
2024/03/06 07:16:14;;;;;;;5.47;4.97;;;;;;;7.35;73.52;96276.78;4983354;28;20204;-69
2024/03/06 07:18:40;;;;;;;11.13;5.87;;;;;;;7.40;73.07;96271.41;4992123;28;20239;-70
2024/03/06 07:21:05;;;;;;;7.57;6.40;;;;;;;7.34;72.90;96274.22;4990806;28;20521;-69
2024/03/06 07:23:30;;;;;;;6.83;5.40;;;;;;;7.35;73.57;96274.19;4990171;28;20201;-69
2024/03/06 07:25:57;;;;;;;8.00;5.37;;;;;;;7.37;72.94;96277.59;4991013;28;20176;-68
2024/03/06 07:28:23;;;;;;;7.57;6.13;;;;;;;7.41;73.13;96267.91;4991336;28;20173;-68
2024/03/06 07:30:48;;;;;;;9.97;5.60;;;;;;;7.31;73.39;96277.78;4991597;28;20424;-69
2024/03/06 07:33:14;;;;;;;6.10;5.50;;;;;;;7.30;73.32;96283.06;4991782;28;20246;-68
2024/03/06 07:35:39;;;;;;;6.77;6.00;;;;;;;7.26;73.52;96277.09;4993799;28;20180;-69
2024/03/06 07:38:05;;;;;;;6.70;5.67;;;;;;;7.29;72.54;96282.19;4995198;28;20703;-69
2024/03/06 07:40:31;;;;;;;6.27;5.67;;;;;;;7.43;72.50;96269.53;4977930;28;20185;-69
2024/03/06 07:42:59;;;;;;;7.87;6.33;;;;;;;7.21;72.56;96279.84;4992877;28;20634;-68
2024/03/06 07:45:26;;;;;;;13.03;5.90;;;;;;;7.48;72.14;96276.38;4995464;28;20786;-67
2024/03/06 07:47:51;;;;;;;9.37;5.67;;;;;;;7.36;72.90;96275.88;4982503;28;20483;-69
2024/03/06 07:50:18;;;;;;;16.83;6.00;;;;;;;7.27;73.55;96276.19;4972913;28;20537;-68
2024/03/06 07:52:45;;;;;;;8.20;5.63;;;;;;;7.30;73.04;96280.44;4987550;28;20673;-68
2024/03/06 07:55:11;;;;;;;7.57;4.73;;;;;;;7.40;72.99;96280.09;4988916;28;20549;-69
2024/03/06 07:57:37;;;;;;;5.60;4.53;;;;;;;7.32;73.16;96283.84;4988644;28;20502;-69
2024/03/06 08:00:09;;;;;;;6.30;4.83;;;;;;;7.37;72.56;96281.94;4988187;28;20181;-68
2024/03/06 08:02:35;;;;;;;17.20;6.70;;;;;;;8.69;90.24;96280.75;4968892;28;20575;-67
2024/03/06 08:05:01;;;;;;;11.20;7.17;;;;;;;10.28;82.86;96274.19;4988204;28;20436;-67
2024/03/06 08:07:26;;;;;;;7.00;5.33;;;;;;;8.50;69.46;96277.13;4987896;28;20482;-69
2024/03/06 08:09:51;;;;;;;5.90;5.17;;;;;;;7.85;70.81;96289.88;4987779;28;20204;-69
2024/03/06 08:12:17;;;;;;;5.53;4.93;;;;;;;7.64;71.27;96290.63;4992237;28;20208;-69
2024/03/06 08:14:43;;;;;;;6.27;5.60;;;;;;;7.58;72.59;96293.44;4976255;28;20245;-69
2024/03/06 08:17:08;;;;;;;6.97;4.87;;;;;;;7.47;72.31;96298.19;4989283;28;20651;-70
2024/03/06 08:19:33;;;;;;;5.03;4.53;;;;;;;7.48;72.90;96299.88;4991893;28;20636;-68
2024/03/06 08:21:59;;;;;;;5.77;5.17;;;;;;;7.43;72.51;96294.81;4988505;28;20176;-69
2024/03/06 08:24:24;;;;;;;8.13;5.60;;;;;;;7.56;72.34;96301.34;4996696;28;20200;-69
2024/03/06 08:26:49;;;;;;;8.33;6.30;;;;;;;7.46;72.52;96301.69;4987005;28;20193;-69
2024/03/06 08:29:15;;;;;;;6.77;5.20;;;;;;;7.36;73.35;96307.19;4987426;28;20177;-67
2024/03/06 08:31:40;;;;;;;6.33;5.27;;;;;;;7.39;73.67;96301.03;4987076;28;20268;-68
2024/03/06 08:34:06;;;;;;;7.20;5.20;;;;;;;7.39;73.70;96304.50;4986915;28;20609;-67
2024/03/06 08:36:31;;;;;;;6.83;5.60;;;;;;;7.55;73.45;96299.63;4984212;28;20276;-69
2024/03/06 08:38:57;;;;;;;18.90;6.80;;;;;;;7.52;73.20;96306.72;4973836;28;20181;-69
2024/03/06 08:41:22;;;;;;;18.17;5.90;;;;;;;7.50;73.26;96316.34;4986550;28;20212;-70
2024/03/06 08:43:47;;;;;;;8.27;6.07;;;;;;;7.54;73.00;96312.75;4986218;28;20890;-69
2024/03/06 08:46:16;;;;;;;7.17;5.80;;;;;;;7.52;72.93;96323.22;4986938;28;20177;-67
2024/03/06 08:48:41;;;;;;;6.53;5.93;;;;;;;7.33;73.24;96315.16;4986985;28;20599;-69
2024/03/06 08:51:10;;;;;;;6.80;5.30;;;;;;;7.30;73.43;96325.69;4986931;28;20435;-69
2024/03/06 08:53:36;;;;;;;8.13;5.80;;;;;;;7.32;74.03;96326.50;4977259;28;20204;-68
2024/03/06 08:56:02;;;;;;;7.03;5.93;;;;;;;7.43;73.14;96331.34;4986868;28;20434;-69
2024/03/06 08:58:27;;;;;;;12.23;6.40;;;;;;;7.55;73.29;96330.09;4968878;28;20423;-69
2024/03/06 09:00:53;;;;;;;7.97;6.10;;;;;;;7.47;73.17;96332.13;4986739;28;20610;-69
2024/03/06 09:03:19;;;;;;;16.50;6.80;;;;;;;7.29;73.56;96337.03;4986958;28;20220;-68
2024/03/06 09:05:44;;;;;;;11.37;6.50;;;;;;;7.58;72.95;96335.22;4986848;28;20188;-67
2024/03/06 09:08:10;;;;;;;6.37;5.77;;;;;;;7.61;73.37;96338.59;4986446;28;20239;-69
2024/03/06 09:10:36;;;;;;;7.40;6.33;;;;;;;7.70;72.69;96347.00;4986875;28;20212;-68
2024/03/06 09:13:01;;;;;;;8.07;6.10;;;;;;;7.52;72.88;96341.50;4986643;28;20499;-67
2024/03/06 09:15:26;;;;;;;15.30;6.73;;;;;;;7.64;72.74;96350.69;4986941;28;20181;-69
2024/03/06 09:17:52;;;;;;;7.10;6.40;;;;;;;7.43;72.98;96341.81;4969531;28;20624;-69
2024/03/06 09:20:17;;;;;;;11.83;6.13;;;;;;;7.45;73.56;96354.81;4987191;28;20629;-69
2024/03/06 09:22:43;;;;;;;7.23;6.53;;;;;;;7.45;73.84;96352.22;4969114;28;20169;-69
2024/03/06 09:25:09;;;;;;;10.40;7.37;;;;;;;7.60;73.45;96360.38;4987188;28;20283;-69
2024/03/06 09:27:34;;;;;;;9.37;6.60;;;;;;;7.10;74.75;96369.81;4987007;28;20187;-69
2024/03/06 09:30:00;;;;;;;14.13;7.80;;;;;;;7.31;75.42;96365.69;4987214;28;20196;-69
2024/03/06 09:32:26;;;;;;;9.33;6.50;;;;;;;7.06;75.25;96369.03;4987327;28;20208;-69
2024/03/06 09:34:52;;;;;;;9.90;6.87;;;;;;;7.12;76.10;96368.03;4986589;28;20189;-69
2024/03/06 09:37:18;;;;;;;10.53;7.27;;;;;;;7.28;75.29;96369.25;4986164;28;20199;-69
2024/03/06 09:39:46;;;;;;;9.03;6.50;;;;;;;7.37;74.91;96376.81;4985817;28;21095;-69
2024/03/06 09:42:12;;;;;;;11.17;6.90;;;;;;;7.25;74.73;96384.16;4986719;28;20416;-69
2024/03/06 09:44:38;;;;;;;15.83;7.60;;;;;;;7.27;74.70;96382.34;4986340;28;20495;-68
2024/03/06 09:47:06;;;;;;;7.47;6.17;;;;;;;7.17;75.85;96381.78;4986767;28;20231;-67
2024/03/06 09:49:32;;;;;;;6.63;5.93;;;;;;;6.84;76.80;96376.69;4983476;28;20190;-70
2024/03/06 09:51:58;;;;;;;8.43;6.77;;;;;;;7.30;75.83;96382.25;4980616;28;20541;-69
2024/03/06 09:54:26;;;;;;;11.57;7.50;;;;;;;7.43;75.25;96392.25;4986037;28;20669;-69
2024/03/06 09:56:51;;;;;;;7.77;5.80;;;;;;;7.18;74.63;96392.19;4986251;28;20427;-69
2024/03/06 09:59:17;;;;;;;8.60;6.17;;;;;;;7.45;74.60;96392.22;4986604;28;20416;-68
2024/03/06 10:01:55;;;;;;;9.00;6.43;;;;;;;7.07;76.47;96396.88;4986280;28;20179;-69
2024/03/06 10:04:25;;;;;;;45.80;10.70;;;;;;;7.37;75.98;96396.81;4985960;28;20243;-68
2024/03/06 10:06:54;;;;;;;17.10;7.53;;;;;;;7.44;75.99;96395.75;4985844;28;20635;-68
2024/03/06 10:09:21;;;;;;;16.87;7.37;;;;;;;7.59;74.99;96410.06;4985842;28;20519;-69
2024/03/06 10:11:47;;;;;;;19.53;7.53;;;;;;;7.61;74.73;96403.03;4985395;28;20831;-69
2024/03/06 10:14:13;;;;;;;9.97;5.90;;;;;;;7.28;75.84;96407.56;4977777;28;20479;-69
2024/03/06 10:16:54;;;;;;;9.43;6.47;;;;;;;7.35;76.25;96403.88;4985918;28;20215;-69
2024/03/06 10:19:20;;;;;;;10.40;5.83;;;;;;;7.45;75.79;96407.03;4985834;28;20263;-68
2024/03/06 10:21:50;;;;;;;5.93;5.33;;;;;;;7.54;74.82;96406.75;4986085;28;20431;-70
2024/03/06 10:24:29;;;;;;;9.33;5.47;;;;;;;7.72;74.91;96407.91;4986123;28;20451;-68
2024/03/06 10:26:57;;;;;;;6.23;4.87;;;;;;;7.75;74.97;96403.44;4986010;28;20415;-68
2024/03/06 10:29:25;;;;;;;7.50;5.27;;;;;;;7.56;75.04;96402.31;4985654;28;20450;-69
2024/03/06 10:31:52;;;;;;;6.70;5.10;;;;;;;7.58;75.24;96404.00;4985682;28;20444;-68
2024/03/06 10:34:20;;;;;;;19.07;6.10;;;;;;;7.71;75.37;96396.59;4986531;28;20562;-69
2024/03/06 10:36:45;;;;;;;8.43;5.33;;;;;;;7.81;75.32;96400.59;4986460;28;20436;-69
2024/03/06 10:39:15;;;;;;;18.33;6.70;;;;;;;7.62;75.27;96404.72;4987179;28;20435;-67
2024/03/06 10:41:41;;;;;;;10.50;5.90;;;;;;;7.95;74.55;96396.69;4982069;28;20658;-68
2024/03/06 10:44:15;;;;;;;56.43;9.23;;;;;;;8.02;73.75;96395.59;4989777;28;21077;-69
2024/03/06 10:46:47;;;;;;;13.80;6.60;;;;;;;8.07;74.42;96401.50;4975835;28;20433;-69
2024/03/06 10:49:14;;;;;;;11.30;5.40;;;;;;;8.07;74.47;96397.13;4984631;28;20432;-70
2024/03/06 10:51:44;;;;;;;17.67;7.00;;;;;;;8.11;74.15;96397.88;4992747;28;20515;-69
2024/03/06 10:54:11;;;;;;;9.47;4.63;;;;;;;8.33;73.05;96392.75;4993567;28;20467;-69
2024/03/06 10:56:43;;;;;;;6.13;4.70;;;;;;;8.22;73.57;96390.53;4985788;28;20474;-69
2024/03/06 10:59:14;;;;;;;4.60;4.10;;;;;;;8.15;74.70;96398.63;4986846;28;21180;-69
2024/03/06 11:01:40;;;;;;;7.20;4.97;;;;;;;8.18;73.95;96399.38;4986213;28;20442;-69
2024/03/06 11:04:07;;;;;;;5.00;4.17;;;;;;;8.24;74.82;96387.84;4990993;28;20498;-71
2024/03/06 11:06:33;;;;;;;9.90;4.93;;;;;;;8.11;75.52;96397.88;4989749;28;20455;-68
2024/03/06 11:09:00;;;;;;;30.23;7.23;;;;;;;8.24;75.35;96398.31;4989961;28;20507;-69
2024/03/06 11:11:25;;;;;;;20.63;7.23;;;;;;;8.23;74.89;96389.63;4989622;28;20416;-69
2024/03/06 11:13:55;;;;;;;6.70;3.63;;;;;;;8.15;75.57;96393.38;4990044;28;20467;-69
2024/03/06 11:16:27;;;;;;;7.70;4.60;;;;;;;8.25;75.26;96395.66;4990079;28;20187;-69
2024/03/06 11:19:06;;;;;;;8.67;4.27;;;;;;;8.27;75.40;96393.84;4990926;28;20539;-69
2024/03/06 11:21:32;;;;;;;13.40;5.53;;;;;;;8.40;74.45;96389.06;4972844;28;20423;-69
2024/03/06 11:24:13;;;;;;;6.17;4.43;;;;;;;8.43;73.77;96394.19;4990959;28;21222;-69
2024/03/06 11:26:42;;;;;;;5.17;3.97;;;;;;;8.38;73.75;96389.97;4990580;28;20498;-69
2024/03/06 11:29:08;;;;;;;4.30;3.90;;;;;;;8.42;73.21;96394.25;4983579;28;20494;-69
2024/03/06 11:31:34;;;;;;;4.63;4.10;;;;;;;8.36;73.72;96395.28;4989911;28;20424;-68